sensor_id;sensor_type;location;lat;lon;timestamp;pressure;altitude;pressure_sealevel;temperature;humidity
29121;BME280;16191;49.548;8.658;2023-05-20T00:01:38;100638.69;;;13.64;83.13
29121;BME280;16191;49.548;8.658;2023-05-20T00:04:05;100641.28;;;13.64;84.56
29121;BME280;16191;49.548;8.658;2023-05-20T00:06:32;100642.91;;;13.66;84.44
29121;BME280;16191;49.548;8.658;2023-05-20T00:08:59;100639.09;;;13.55;85.66
29121;BME280;16191;49.548;8.658;2023-05-20T00:11:25;100637.53;;;13.51;85.93
29121;BME280;16191;49.548;8.658;2023-05-20T00:13:52;100643.75;;;13.48;86.67
29121;BME280;16191;49.548;8.658;2023-05-20T00:16:19;100639.16;;;13.53;85.93
29121;BME280;16191;49.548;8.658;2023-05-20T00:18:45;100648.22;;;13.46;86.91
29121;BME280;16191;49.548;8.658;2023-05-20T00:21:12;100643.22;;;13.42;88.56
29121;BME280;16191;49.548;8.658;2023-05-20T00:23:39;100635.75;;;13.51;87.25
29121;BME280;16191;49.548;8.658;2023-05-20T00:26:06;100641.00;;;13.51;87.26
29121;BME280;16191;49.548;8.658;2023-05-20T00:28:32;100635.91;;;13.48;88.57
29121;BME280;16191;49.548;8.658;2023-05-20T00:30:59;100644.53;;;13.50;87.56
29121;BME280;16191;49.548;8.658;2023-05-20T00:33:25;100639.38;;;13.49;88.02
29121;BME280;16191;49.548;8.658;2023-05-20T00:35:52;100643.91;;;13.45;88.14
29121;BME280;16191;49.548;8.658;2023-05-20T00:38:18;100639.50;;;13.46;88.68
29121;BME280;16191;49.548;8.658;2023-05-20T00:40:45;100636.81;;;13.47;88.09
29121;BME280;16191;49.548;8.658;2023-05-20T00:43:11;100640.22;;;13.49;88.67
29121;BME280;16191;49.548;8.658;2023-05-20T00:45:38;100644.41;;;13.53;88.29
29121;BME280;16191;49.548;8.658;2023-05-20T00:48:05;100630.59;;;13.50;87.99
29121;BME280;16191;49.548;8.658;2023-05-20T00:50:32;100632.28;;;13.51;88.94
29121;BME280;16191;49.548;8.658;2023-05-20T00:52:59;100627.91;;;13.51;89.17
29121;BME280;16191;49.548;8.658;2023-05-20T00:55:26;100621.66;;;13.54;89.14
29121;BME280;16191;49.548;8.658;2023-05-20T00:57:53;100625.47;;;13.47;89.90
29121;BME280;16191;49.548;8.658;2023-05-20T01:00:19;100619.63;;;13.42;89.53
29121;BME280;16191;49.548;8.658;2023-05-20T01:02:48;100624.03;;;13.41;90.20
29121;BME280;16191;49.548;8.658;2023-05-20T01:05:14;100631.44;;;13.31;90.84
29121;BME280;16191;49.548;8.658;2023-05-20T01:07:41;100627.31;;;13.26;91.10
29121;BME280;16191;49.548;8.658;2023-05-20T01:10:09;100626.00;;;13.17;92.24
29121;BME280;16191;49.548;8.658;2023-05-20T01:12:38;100623.81;;;13.07;94.23
29121;BME280;16191;49.548;8.658;2023-05-20T01:15:08;100611.56;;;13.07;94.95
29121;BME280;16191;49.548;8.658;2023-05-20T01:17:57;100623.38;;;12.97;95.69
29121;BME280;16191;49.548;8.658;2023-05-20T01:20:48;100618.69;;;12.85;98.12
29121;BME280;16191;49.548;8.658;2023-05-20T01:23:40;100614.34;;;12.84;99.21
29121;BME280;16191;49.548;8.658;2023-05-20T01:26:27;100612.47;;;12.67;100.00
29121;BME280;16191;49.548;8.658;2023-05-20T01:29:14;100612.75;;;12.61;100.00
29121;BME280;16191;49.548;8.658;2023-05-20T01:32:19;100607.69;;;12.56;100.00
29121;BME280;16191;49.548;8.658;2023-05-20T01:34:48;100606.03;;;12.55;100.00
29121;BME280;16191;49.548;8.658;2023-05-20T01:37:16;100612.25;;;12.53;100.00
29121;BME280;16191;49.548;8.658;2023-05-20T01:39:44;100606.66;;;12.40;100.00
29121;BME280;16191;49.548;8.658;2023-05-20T01:42:13;100607.50;;;12.41;100.00
29121;BME280;16191;49.548;8.658;2023-05-20T01:44:40;100608.78;;;12.32;100.00
29121;BME280;16191;49.548;8.658;2023-05-20T01:47:08;100605.38;;;12.30;100.00
29121;BME280;16191;49.548;8.658;2023-05-20T01:49:34;100613.28;;;12.28;100.00
29121;BME280;16191;49.548;8.658;2023-05-20T01:52:01;100611.56;;;12.27;100.00
29121;BME280;16191;49.548;8.658;2023-05-20T01:54:28;100603.91;;;12.23;100.00
29121;BME280;16191;49.548;8.658;2023-05-20T01:56:55;100606.72;;;12.18;100.00
29121;BME280;16191;49.548;8.658;2023-05-20T01:59:21;100599.91;;;12.34;100.00
29121;BME280;16191;49.548;8.658;2023-05-20T02:01:49;100599.59;;;12.22;100.00
29121;BME280;16191;49.548;8.658;2023-05-20T02:04:16;100598.88;;;12.18;100.00
29121;BME280;16191;49.548;8.658;2023-05-20T02:06:44;100600.06;;;12.11;100.00
29121;BME280;16191;49.548;8.658;2023-05-20T02:09:11;100587.84;;;12.12;100.00
29121;BME280;16191;49.548;8.658;2023-05-20T02:11:38;100598.13;;;12.15;100.00
29121;BME280;16191;49.548;8.658;2023-05-20T02:14:05;100589.72;;;12.08;100.00
29121;BME280;16191;49.548;8.658;2023-05-20T02:16:31;100602.53;;;12.14;100.00
29121;BME280;16191;49.548;8.658;2023-05-20T02:18:58;100597.03;;;12.20;100.00
29121;BME280;16191;49.548;8.658;2023-05-20T02:21:25;100603.00;;;12.24;100.00
29121;BME280;16191;49.548;8.658;2023-05-20T02:23:52;100596.84;;;12.25;100.00
29121;BME280;16191;49.548;8.658;2023-05-20T02:26:19;100587.31;;;12.24;100.00
29121;BME280;16191;49.548;8.658;2023-05-20T02:28:46;100593.88;;;12.34;100.00
29121;BME280;16191;49.548;8.658;2023-05-20T02:31:16;100593.63;;;12.39;100.00
29121;BME280;16191;49.548;8.658;2023-05-20T02:33:43;100585.41;;;12.27;100.00
29121;BME280;16191;49.548;8.658;2023-05-20T02:36:11;100587.53;;;12.18;100.00
29121;BME280;16191;49.548;8.658;2023-05-20T02:38:37;100580.75;;;12.14;100.00
29121;BME280;16191;49.548;8.658;2023-05-20T02:41:04;100575.91;;;12.25;100.00
29121;BME280;16191;49.548;8.658;2023-05-20T02:43:32;100570.09;;;12.39;100.00
29121;BME280;16191;49.548;8.658;2023-05-20T02:45:59;100569.09;;;12.41;100.00
29121;BME280;16191;49.548;8.658;2023-05-20T02:48:26;100578.78;;;12.39;100.00
29121;BME280;16191;49.548;8.658;2023-05-20T02:50:53;100575.00;;;12.46;100.00
29121;BME280;16191;49.548;8.658;2023-05-20T02:53:19;100574.28;;;12.43;100.00
29121;BME280;16191;49.548;8.658;2023-05-20T02:55:46;100572.31;;;12.48;100.00
29121;BME280;16191;49.548;8.658;2023-05-20T02:58:14;100573.25;;;12.47;100.00
29121;BME280;16191;49.548;8.658;2023-05-20T03:00:40;100573.31;;;12.45;100.00
29121;BME280;16191;49.548;8.658;2023-05-20T03:03:08;100576.44;;;12.53;100.00
29121;BME280;16191;49.548;8.658;2023-05-20T03:05:36;100559.28;;;12.46;100.00
29121;BME280;16191;49.548;8.658;2023-05-20T03:08:07;100569.56;;;12.51;100.00
29121;BME280;16191;49.548;8.658;2023-05-20T03:10:38;100565.97;;;12.53;100.00
29121;BME280;16191;49.548;8.658;2023-05-20T03:13:07;100565.91;;;12.55;100.00
29121;BME280;16191;49.548;8.658;2023-05-20T03:15:36;100561.44;;;12.57;100.00
29121;BME280;16191;49.548;8.658;2023-05-20T03:18:04;100568.53;;;12.55;100.00
29121;BME280;16191;49.548;8.658;2023-05-20T03:20:33;100573.97;;;12.50;100.00
29121;BME280;16191;49.548;8.658;2023-05-20T03:23:03;100571.16;;;12.55;100.00
29121;BME280;16191;49.548;8.658;2023-05-20T03:25:29;100567.69;;;12.54;100.00
29121;BME280;16191;49.548;8.658;2023-05-20T03:27:57;100567.09;;;12.48;100.00
29121;BME280;16191;49.548;8.658;2023-05-20T03:30:28;100565.25;;;12.50;100.00
29121;BME280;16191;49.548;8.658;2023-05-20T03:32:55;100565.91;;;12.55;100.00
29121;BME280;16191;49.548;8.658;2023-05-20T03:35:25;100565.81;;;12.56;100.00
29121;BME280;16191;49.548;8.658;2023-05-20T03:37:53;100565.13;;;12.53;100.00
29121;BME280;16191;49.548;8.658;2023-05-20T03:40:22;100560.94;;;12.49;100.00
29121;BME280;16191;49.548;8.658;2023-05-20T03:42:49;100569.28;;;12.57;100.00
29121;BME280;16191;49.548;8.658;2023-05-20T03:45:19;100576.09;;;12.61;100.00
29121;BME280;16191;49.548;8.658;2023-05-20T03:48:02;100575.19;;;12.62;100.00
29121;BME280;16191;49.548;8.658;2023-05-20T03:50:31;100574.97;;;12.66;100.00
29121;BME280;16191;49.548;8.658;2023-05-20T03:52:59;100567.69;;;12.54;100.00
29121;BME280;16191;49.548;8.658;2023-05-20T03:55:27;100569.63;;;12.49;100.00
29121;BME280;16191;49.548;8.658;2023-05-20T03:57:54;100563.28;;;12.55;100.00
29121;BME280;16191;49.548;8.658;2023-05-20T04:00:20;100568.16;;;12.62;100.00
29121;BME280;16191;49.548;8.658;2023-05-20T04:02:48;100554.72;;;12.51;100.00
29121;BME280;16191;49.548;8.658;2023-05-20T04:05:17;100556.03;;;12.41;100.00
29121;BME280;16191;49.548;8.658;2023-05-20T04:07:45;100565.13;;;12.53;100.00
29121;BME280;16191;49.548;8.658;2023-05-20T04:10:12;100565.56;;;12.42;100.00
29121;BME280;16191;49.548;8.658;2023-05-20T04:12:38;100571.28;;;12.52;100.00
29121;BME280;16191;49.548;8.658;2023-05-20T04:15:06;100567.81;;;12.51;100.00
29121;BME280;16191;49.548;8.658;2023-05-20T04:17:41;100568.31;;;12.59;100.00
29121;BME280;16191;49.548;8.658;2023-05-20T04:20:09;100574.13;;;12.66;100.00
29121;BME280;16191;49.548;8.658;2023-05-20T04:22:36;100573.28;;;12.65;100.00
29121;BME280;16191;49.548;8.658;2023-05-20T04:25:05;100574.91;;;12.68;100.00
29121;BME280;16191;49.548;8.658;2023-05-20T04:27:33;100572.69;;;12.59;100.00
29121;BME280;16191;49.548;8.658;2023-05-20T04:29:59;100572.81;;;12.56;100.00
29121;BME280;16191;49.548;8.658;2023-05-20T04:32:31;100572.69;;;12.59;100.00
29121;BME280;16191;49.548;8.658;2023-05-20T04:35:00;100567.78;;;12.72;100.00
29121;BME280;16191;49.548;8.658;2023-05-20T04:37:30;100588.38;;;12.79;100.00
29121;BME280;16191;49.548;8.658;2023-05-20T04:39:57;100580.38;;;12.82;100.00
29121;BME280;16191;49.548;8.658;2023-05-20T04:42:23;100575.13;;;12.82;100.00
29121;BME280;16191;49.548;8.658;2023-05-20T04:44:51;100562.03;;;12.82;100.00
29121;BME280;16191;49.548;8.658;2023-05-20T04:47:19;100561.97;;;12.84;100.00
29121;BME280;16191;49.548;8.658;2023-05-20T04:49:45;100564.41;;;12.88;100.00
29121;BME280;16191;49.548;8.658;2023-05-20T04:52:12;100568.00;;;12.86;100.00
29121;BME280;16191;49.548;8.658;2023-05-20T04:54:39;100569.13;;;12.80;100.00
29121;BME280;16191;49.548;8.658;2023-05-20T04:57:06;100572.97;;;12.92;100.00
29121;BME280;16191;49.548;8.658;2023-05-20T04:59:32;100563.47;;;12.89;100.00
29121;BME280;16191;49.548;8.658;2023-05-20T05:01:59;100558.03;;;12.94;100.00
29121;BME280;16191;49.548;8.658;2023-05-20T05:04:26;100557.84;;;12.98;100.00
29121;BME280;16191;49.548;8.658;2023-05-20T05:06:52;100554.97;;;13.03;100.00
29121;BME280;16191;49.548;8.658;2023-05-20T05:09:19;100551.31;;;13.07;100.00
29121;BME280;16191;49.548;8.658;2023-05-20T05:11:46;100563.34;;;13.11;100.00
29121;BME280;16191;49.548;8.658;2023-05-20T05:14:12;100548.06;;;13.21;100.00
29121;BME280;16191;49.548;8.658;2023-05-20T05:16:39;100547.16;;;13.22;100.00
29121;BME280;16191;49.548;8.658;2023-05-20T05:19:07;100547.56;;;13.31;100.00
29121;BME280;16191;49.548;8.658;2023-05-20T05:21:37;100541.34;;;13.34;100.00
29121;BME280;16191;49.548;8.658;2023-05-20T05:24:03;100540.66;;;13.48;100.00
29121;BME280;16191;49.548;8.658;2023-05-20T05:26:30;100531.31;;;13.61;100.00
29121;BME280;16191;49.548;8.658;2023-05-20T05:28:57;100531.41;;;13.77;100.00
29121;BME280;16191;49.548;8.658;2023-05-20T05:31:23;100535.25;;;13.87;100.00
29121;BME280;16191;49.548;8.658;2023-05-20T05:33:50;100519.91;;;13.96;100.00
29121;BME280;16191;49.548;8.658;2023-05-20T05:36:16;100527.06;;;14.10;100.00
29121;BME280;16191;49.548;8.658;2023-05-20T05:38:43;100525.84;;;14.17;100.00
29121;BME280;16191;49.548;8.658;2023-05-20T05:41:10;100523.53;;;14.28;100.00
29121;BME280;16191;49.548;8.658;2023-05-20T05:43:37;100527.59;;;14.34;100.00
29121;BME280;16191;49.548;8.658;2023-05-20T05:46:05;100521.19;;;14.39;100.00
29121;BME280;16191;49.548;8.658;2023-05-20T05:48:32;100519.13;;;14.46;100.00
29121;BME280;16191;49.548;8.658;2023-05-20T05:50:59;100516.22;;;14.51;100.00
29121;BME280;16191;49.548;8.658;2023-05-20T05:53:26;100510.50;;;14.60;100.00
29121;BME280;16191;49.548;8.658;2023-05-20T05:55:52;100511.66;;;14.71;100.00
29121;BME280;16191;49.548;8.658;2023-05-20T05:58:19;100512.22;;;14.77;100.00
29121;BME280;16191;49.548;8.658;2023-05-20T06:00:46;100515.22;;;14.86;100.00
29121;BME280;16191;49.548;8.658;2023-05-20T06:03:12;100515.06;;;14.89;100.00
29121;BME280;16191;49.548;8.658;2023-05-20T06:05:39;100509.63;;;14.92;100.00
29121;BME280;16191;49.548;8.658;2023-05-20T06:08:06;100505.56;;;15.02;100.00
29121;BME280;16191;49.548;8.658;2023-05-20T06:10:34;100510.56;;;15.07;100.00
29121;BME280;16191;49.548;8.658;2023-05-20T06:13:01;100505.75;;;15.15;100.00
29121;BME280;16191;49.548;8.658;2023-05-20T06:15:27;100504.19;;;15.27;100.00
29121;BME280;16191;49.548;8.658;2023-05-20T06:17:55;100494.44;;;15.29;100.00
29121;BME280;16191;49.548;8.658;2023-05-20T06:20:22;100495.81;;;15.36;100.00
29121;BME280;16191;49.548;8.658;2023-05-20T06:22:48;100496.38;;;15.41;100.00
29121;BME280;16191;49.548;8.658;2023-05-20T06:25:15;100498.84;;;15.44;100.00
29121;BME280;16191;49.548;8.658;2023-05-20T06:27:43;100499.34;;;15.51;100.00
29121;BME280;16191;49.548;8.658;2023-05-20T06:30:12;100499.09;;;15.55;100.00
29121;BME280;16191;49.548;8.658;2023-05-20T06:32:39;100501.78;;;15.69;100.00
29121;BME280;16191;49.548;8.658;2023-05-20T06:35:06;100507.47;;;15.77;100.00
29121;BME280;16191;49.548;8.658;2023-05-20T06:37:33;100504.16;;;15.74;100.00
29121;BME280;16191;49.548;8.658;2023-05-20T06:40:00;100496.28;;;15.88;100.00
29121;BME280;16191;49.548;8.658;2023-05-20T06:42:27;100497.47;;;15.98;100.00
29121;BME280;16191;49.548;8.658;2023-05-20T06:45:02;100491.69;;;15.92;100.00
29121;BME280;16191;49.548;8.658;2023-05-20T06:47:40;100494.16;;;15.95;100.00
29121;BME280;16191;49.548;8.658;2023-05-20T06:50:07;100491.91;;;16.03;100.00
29121;BME280;16191;49.548;8.658;2023-05-20T06:52:34;100496.91;;;16.07;100.00
29121;BME280;16191;49.548;8.658;2023-05-20T06:55:02;100499.34;;;15.96;100.00
29121;BME280;16191;49.548;8.658;2023-05-20T06:57:29;100504.63;;;16.10;100.00
29121;BME280;16191;49.548;8.658;2023-05-20T06:59:55;100499.94;;;16.16;100.00
29121;BME280;16191;49.548;8.658;2023-05-20T07:02:22;100502.38;;;16.33;100.00
29121;BME280;16191;49.548;8.658;2023-05-20T07:04:48;100492.25;;;16.41;100.00
29121;BME280;16191;49.548;8.658;2023-05-20T07:07:15;100489.78;;;16.52;100.00
29121;BME280;16191;49.548;8.658;2023-05-20T07:09:44;100483.13;;;16.61;100.00
29121;BME280;16191;49.548;8.658;2023-05-20T07:12:10;100483.41;;;16.70;100.00
29121;BME280;16191;49.548;8.658;2023-05-20T07:14:37;100474.09;;;16.79;100.00
29121;BME280;16191;49.548;8.658;2023-05-20T07:17:04;100468.31;;;17.01;100.00
29121;BME280;16191;49.548;8.658;2023-05-20T07:19:31;100469.06;;;17.03;98.98
29121;BME280;16191;49.548;8.658;2023-05-20T07:21:59;100454.03;;;17.18;96.21
29121;BME280;16191;49.548;8.658;2023-05-20T07:24:49;100463.94;;;17.41;95.89
29121;BME280;16191;49.548;8.658;2023-05-20T07:27:15;100462.91;;;17.56;94.48
29121;BME280;16191;49.548;8.658;2023-05-20T07:29:42;100469.13;;;17.82;94.50
29121;BME280;16191;49.548;8.658;2023-05-20T07:32:10;100461.22;;;17.82;90.12
29121;BME280;16191;49.548;8.658;2023-05-20T07:34:37;100446.84;;;17.99;89.69
29121;BME280;16191;49.548;8.658;2023-05-20T07:37:04;100440.84;;;18.22;90.60
29121;BME280;16191;49.548;8.658;2023-05-20T07:39:31;100446.53;;;18.41;89.72
29121;BME280;16191;49.548;8.658;2023-05-20T07:41:57;100452.25;;;18.35;84.52
29121;BME280;16191;49.548;8.658;2023-05-20T07:44:24;100439.22;;;18.58;85.33
29121;BME280;16191;49.548;8.658;2023-05-20T07:46:52;100438.50;;;18.68;83.19
29121;BME280;16191;49.548;8.658;2023-05-20T07:49:19;100440.91;;;18.71;81.64
29121;BME280;16191;49.548;8.658;2023-05-20T07:51:46;100440.00;;;18.60;79.76
29121;BME280;16191;49.548;8.658;2023-05-20T07:54:14;100449.81;;;18.58;78.71
29121;BME280;16191;49.548;8.658;2023-05-20T07:56:44;100446.41;;;18.68;79.05
29121;BME280;16191;49.548;8.658;2023-05-20T07:59:11;100442.75;;;18.95;76.03
29121;BME280;16191;49.548;8.658;2023-05-20T08:01:43;100444.22;;;18.99;76.30
29121;BME280;16191;49.548;8.658;2023-05-20T08:04:12;100445.00;;;19.36;75.03
29121;BME280;16191;49.548;8.658;2023-05-20T08:06:39;100433.97;;;19.42;72.78
29121;BME280;16191;49.548;8.658;2023-05-20T08:09:10;100436.63;;;19.42;72.75
29121;BME280;16191;49.548;8.658;2023-05-20T08:11:40;100443.38;;;19.70;73.62
29121;BME280;16191;49.548;8.658;2023-05-20T08:14:07;100440.34;;;19.63;72.26
29121;BME280;16191;49.548;8.658;2023-05-20T08:16:38;100431.56;;;19.74;71.77
29121;BME280;16191;49.548;8.658;2023-05-20T08:19:05;100440.84;;;19.79;70.19
29121;BME280;16191;49.548;8.658;2023-05-20T08:21:31;100438.81;;;19.83;71.28
29121;BME280;16191;49.548;8.658;2023-05-20T08:23:58;100441.53;;;20.05;69.79
29121;BME280;16191;49.548;8.658;2023-05-20T08:26:26;100444.28;;;20.04;69.92
29121;BME280;16191;49.548;8.658;2023-05-20T08:28:53;100427.56;;;20.26;68.85
29121;BME280;16191;49.548;8.658;2023-05-20T08:31:21;100436.47;;;20.25;67.99
29121;BME280;16191;49.548;8.658;2023-05-20T08:33:48;100435.19;;;20.41;67.50
29121;BME280;16191;49.548;8.658;2023-05-20T08:36:16;100429.63;;;20.78;67.21
29121;BME280;16191;49.548;8.658;2023-05-20T08:38:44;100441.28;;;20.98;66.42
29121;BME280;16191;49.548;8.658;2023-05-20T08:41:11;100433.09;;;20.90;66.56
29121;BME280;16191;49.548;8.658;2023-05-20T08:43:40;100430.53;;;21.42;64.41
29121;BME280;16191;49.548;8.658;2023-05-20T08:46:08;100425.38;;;20.86;64.15
29121;BME280;16191;49.548;8.658;2023-05-20T08:48:35;100426.81;;;21.34;62.34
29121;BME280;16191;49.548;8.658;2023-05-20T08:51:02;100425.69;;;21.68;60.74
29121;BME280;16191;49.548;8.658;2023-05-20T08:53:30;100423.94;;;21.58;58.81
29121;BME280;16191;49.548;8.658;2023-05-20T08:55:59;100418.81;;;21.66;60.83
29121;BME280;16191;49.548;8.658;2023-05-20T08:58:29;100414.63;;;21.84;59.06
29121;BME280;16191;49.548;8.658;2023-05-20T09:00:56;100406.81;;;22.13;57.22
29121;BME280;16191;49.548;8.658;2023-05-20T09:03:24;100411.63;;;21.77;59.49
29121;BME280;16191;49.548;8.658;2023-05-20T09:06:06;100402.25;;;21.73;60.72
29121;BME280;16191;49.548;8.658;2023-05-20T09:08:33;100400.63;;;21.82;59.60
29121;BME280;16191;49.548;8.658;2023-05-20T09:11:00;100398.69;;;22.05;57.96
29121;BME280;16191;49.548;8.658;2023-05-20T09:13:29;100383.69;;;22.34;57.08
29121;BME280;16191;49.548;8.658;2023-05-20T09:15:56;100389.69;;;22.27;56.83
29121;BME280;16191;49.548;8.658;2023-05-20T09:18:24;100390.75;;;22.54;55.32
29121;BME280;16191;49.548;8.658;2023-05-20T09:20:52;100399.06;;;22.31;56.29
29121;BME280;16191;49.548;8.658;2023-05-20T09:23:19;100392.72;;;21.71;57.20
29121;BME280;16191;49.548;8.658;2023-05-20T09:25:49;100390.03;;;22.12;58.61
29121;BME280;16191;49.548;8.658;2023-05-20T09:28:22;100393.19;;;22.77;56.76
29121;BME280;16191;49.548;8.658;2023-05-20T09:30:50;100387.41;;;23.12;53.64
29121;BME280;16191;49.548;8.658;2023-05-20T09:33:17;100390.59;;;22.86;52.75
29121;BME280;16191;49.548;8.658;2023-05-20T09:35:43;100387.94;;;23.25;51.81
29121;BME280;16191;49.548;8.658;2023-05-20T09:38:10;100385.00;;;22.99;52.34
29121;BME280;16191;49.548;8.658;2023-05-20T09:40:37;100393.69;;;23.01;54.28
29121;BME280;16191;49.548;8.658;2023-05-20T09:43:06;100384.72;;;23.02;55.56
29121;BME280;16191;49.548;8.658;2023-05-20T09:45:33;100380.66;;;23.75;52.55
29121;BME280;16191;49.548;8.658;2023-05-20T09:48:01;100385.69;;;23.49;53.08
29121;BME280;16191;49.548;8.658;2023-05-20T09:50:29;100380.22;;;23.80;51.70
29121;BME280;16191;49.548;8.658;2023-05-20T09:53:01;100386.66;;;23.77;51.60
29121;BME280;16191;49.548;8.658;2023-05-20T09:55:28;100397.06;;;23.80;51.10
29121;BME280;16191;49.548;8.658;2023-05-20T09:57:57;100388.34;;;23.78;51.15
29121;BME280;16191;49.548;8.658;2023-05-20T10:00:27;100394.69;;;24.14;50.06
29121;BME280;16191;49.548;8.658;2023-05-20T10:02:54;100384.16;;;24.13;49.39
29121;BME280;16191;49.548;8.658;2023-05-20T10:09:04;100379.88;;;24.02;49.23
29121;BME280;16191;49.548;8.658;2023-05-20T10:11:41;100364.22;;;24.26;49.43
29121;BME280;16191;49.548;8.658;2023-05-20T10:19:40;100369.38;;;24.83;48.28
29121;BME280;16191;49.548;8.658;2023-05-20T10:22:08;100376.53;;;24.65;48.98
29121;BME280;16191;49.548;8.658;2023-05-20T10:24:41;100379.25;;;24.73;48.52
29121;BME280;16191;49.548;8.658;2023-05-20T10:27:13;100367.88;;;25.77;46.01
29121;BME280;16191;49.548;8.658;2023-05-20T10:29:42;100372.50;;;25.93;44.21
29121;BME280;16191;49.548;8.658;2023-05-20T10:32:09;100360.22;;;26.08;43.93
29121;BME280;16191;49.548;8.658;2023-05-20T10:34:46;100364.78;;;25.90;44.98
29121;BME280;16191;49.548;8.658;2023-05-20T10:37:25;100364.38;;;24.70;48.62
29121;BME280;16191;49.548;8.658;2023-05-20T10:40:04;100357.81;;;25.27;47.28
29121;BME280;16191;49.548;8.658;2023-05-20T10:42:31;100351.56;;;25.01;48.09
29121;BME280;16191;49.548;8.658;2023-05-20T10:44:58;100337.28;;;25.28;47.43
29121;BME280;16191;49.548;8.658;2023-05-20T10:47:24;100345.53;;;25.60;46.08
29121;BME280;16191;49.548;8.658;2023-05-20T10:49:52;100337.53;;;25.86;45.86
29121;BME280;16191;49.548;8.658;2023-05-20T10:52:19;100334.78;;;25.52;45.67
29121;BME280;16191;49.548;8.658;2023-05-20T10:54:53;100338.34;;;26.13;44.79
29121;BME280;16191;49.548;8.658;2023-05-20T10:57:21;100338.75;;;26.00;45.53
29121;BME280;16191;49.548;8.658;2023-05-20T10:59:48;100338.47;;;24.80;46.59
29121;BME280;16191;49.548;8.658;2023-05-20T11:02:16;100327.13;;;24.78;48.54
29121;BME280;16191;49.548;8.658;2023-05-20T11:04:43;100325.63;;;25.81;46.37
29121;BME280;16191;49.548;8.658;2023-05-20T11:07:10;100325.53;;;25.65;45.48
29121;BME280;16191;49.548;8.658;2023-05-20T11:09:37;100326.22;;;26.01;45.71
29121;BME280;16191;49.548;8.658;2023-05-20T11:12:04;100322.66;;;25.40;46.53
29121;BME280;16191;49.548;8.658;2023-05-20T11:14:31;100330.09;;;25.72;45.41
29121;BME280;16191;49.548;8.658;2023-05-20T11:16:59;100327.19;;;26.25;43.65
29121;BME280;16191;49.548;8.658;2023-05-20T11:19:26;100321.66;;;26.27;44.60
29121;BME280;16191;49.548;8.658;2023-05-20T11:21:53;100323.16;;;25.18;45.46
29121;BME280;16191;49.548;8.658;2023-05-20T11:24:25;100319.19;;;25.22;46.37
29121;BME280;16191;49.548;8.658;2023-05-20T11:26:53;100308.84;;;25.45;45.42
29121;BME280;16191;49.548;8.658;2023-05-20T11:29:20;100313.91;;;25.56;45.41
29121;BME280;16191;49.548;8.658;2023-05-20T11:31:48;100313.69;;;25.67;45.59
29121;BME280;16191;49.548;8.658;2023-05-20T11:34:20;100302.13;;;24.97;46.96
29121;BME280;16191;49.548;8.658;2023-05-20T11:36:57;100306.84;;;25.21;46.50
29121;BME280;16191;49.548;8.658;2023-05-20T11:39:24;100297.47;;;25.43;46.16
29121;BME280;16191;49.548;8.658;2023-05-20T11:41:55;100299.00;;;25.97;45.00
29121;BME280;16191;49.548;8.658;2023-05-20T11:44:23;100310.13;;;25.84;44.21
29121;BME280;16191;49.548;8.658;2023-05-20T11:46:50;100310.00;;;25.94;43.70
29121;BME280;16191;49.548;8.658;2023-05-20T11:49:16;100300.03;;;25.70;43.30
29121;BME280;16191;49.548;8.658;2023-05-20T11:51:43;100302.38;;;25.73;44.29
29121;BME280;16191;49.548;8.658;2023-05-20T11:54:10;100293.97;;;25.94;43.91
29121;BME280;16191;49.548;8.658;2023-05-20T11:56:38;100294.94;;;25.33;45.57
29121;BME280;16191;49.548;8.658;2023-05-20T11:59:08;100293.28;;;25.40;45.75
29121;BME280;16191;49.548;8.658;2023-05-20T12:01:36;100300.06;;;25.09;45.33
29121;BME280;16191;49.548;8.658;2023-05-20T12:04:06;100297.16;;;24.67;46.45
29121;BME280;16191;49.548;8.658;2023-05-20T12:06:34;100297.06;;;24.58;46.83
29121;BME280;16191;49.548;8.658;2023-05-20T12:09:03;100287.38;;;25.54;45.11
29121;BME280;16191;49.548;8.658;2023-05-20T12:11:33;100289.09;;;25.38;44.25
29121;BME280;16191;49.548;8.658;2023-05-20T12:14:04;100286.09;;;25.41;44.91
29121;BME280;16191;49.548;8.658;2023-05-20T12:16:31;100281.81;;;25.22;45.06
29121;BME280;16191;49.548;8.658;2023-05-20T12:18:58;100267.63;;;25.47;45.08
29121;BME280;16191;49.548;8.658;2023-05-20T12:21:27;100278.06;;;25.33;45.44
29121;BME280;16191;49.548;8.658;2023-05-20T12:23:54;100272.03;;;25.31;45.37
29121;BME280;16191;49.548;8.658;2023-05-20T12:26:24;100274.09;;;24.48;46.33
29121;BME280;16191;49.548;8.658;2023-05-20T12:28:53;100278.66;;;25.78;43.25
29121;BME280;16191;49.548;8.658;2023-05-20T12:31:19;100278.66;;;25.70;43.54
29121;BME280;16191;49.548;8.658;2023-05-20T12:33:46;100276.41;;;25.40;45.31
29121;BME280;16191;49.548;8.658;2023-05-20T12:36:13;100289.34;;;24.91;46.36
29121;BME280;16191;49.548;8.658;2023-05-20T12:38:40;100278.00;;;25.24;45.65
29121;BME280;16191;49.548;8.658;2023-05-20T12:41:07;100283.91;;;25.10;45.25
29121;BME280;16191;49.548;8.658;2023-05-20T12:43:34;100283.66;;;24.23;47.53
29121;BME280;16191;49.548;8.658;2023-05-20T12:46:02;100275.47;;;24.34;46.71
29121;BME280;16191;49.548;8.658;2023-05-20T12:48:29;100280.88;;;24.15;47.84
29121;BME280;16191;49.548;8.658;2023-05-20T12:50:56;100277.50;;;24.85;46.22
29121;BME280;16191;49.548;8.658;2023-05-20T12:53:22;100260.69;;;24.93;45.77
29121;BME280;16191;49.548;8.658;2023-05-20T12:55:49;100266.84;;;24.93;45.87
29121;BME280;16191;49.548;8.658;2023-05-20T12:58:16;100265.09;;;26.06;44.27
29121;BME280;16191;49.548;8.658;2023-05-20T13:00:42;100254.25;;;26.74;42.11